createdAt,value
2022-10-02T00:15:46.208Z,99.90
2022-10-02T00:18:19.355Z,99.90
2022-10-02T00:21:02.011Z,99.90
2022-10-02T00:23:38.130Z,1.00
2022-10-02T00:26:11.656Z,1.00
2022-10-02T00:28:49.015Z,1.00
2022-10-02T00:31:35.261Z,1.00
2022-10-02T00:34:21.948Z,99.90
2022-10-02T00:37:00.539Z,99.90
2022-10-02T00:39:43.734Z,99.90
2022-10-02T00:42:58.058Z,1.00
2022-10-02T00:45:56.206Z,99.90
2022-10-02T00:49:09.888Z,66.00
2022-10-02T00:51:52.555Z,63.30
2022-10-02T00:54:45.956Z,99.90
2022-10-02T00:57:25.352Z,99.90
2022-10-02T01:00:03.627Z,1.00
2022-10-02T01:03:19.940Z,1.00
2022-10-02T01:05:49.802Z,1.00
2022-10-02T01:08:22.098Z,1.00
2022-10-02T01:10:51.442Z,1.00
2022-10-02T01:13:20.142Z,58.10
2022-10-02T01:15:55.295Z,99.90
2022-10-02T01:18:25.525Z,99.90
2022-10-02T01:20:59.017Z,26.60
2022-10-02T01:23:37.527Z,31.60
2022-10-02T01:26:08.494Z,1.00
2022-10-02T01:28:39.718Z,1.00
2022-10-02T01:31:15.552Z,99.90
2022-10-02T01:33:46.438Z,47.30
2022-10-02T01:36:16.776Z,99.90
2022-10-02T01:38:48.060Z,1.00
2022-10-02T01:41:21.182Z,99.90
2022-10-02T01:43:53.980Z,1.00
2022-10-02T01:46:31.795Z,96.10
2022-10-02T01:49:14.959Z,99.90
2022-10-02T01:52:06.998Z,99.90
2022-10-02T01:54:49.163Z,99.90
2022-10-02T01:57:30.198Z,99.90
2022-10-02T02:00:10.279Z,1.00
2022-10-02T02:02:51.726Z,1.00
2022-10-02T02:05:32.658Z,1.00
2022-10-02T02:08:11.597Z,84.60
2022-10-02T02:10:57.976Z,99.90
2022-10-02T02:13:37.680Z,99.90
2022-10-02T02:16:12.842Z,99.90
2022-10-02T02:18:44.974Z,99.90
2022-10-02T02:21:21.988Z,99.90
2022-10-02T02:23:52.945Z,99.90
2022-10-02T02:26:28.732Z,99.90
2022-10-02T02:29:03.357Z,99.90
2022-10-02T02:31:41.674Z,99.90
2022-10-02T02:34:13.583Z,99.90
2022-10-02T02:36:46.411Z,99.90
2022-10-02T02:39:20.127Z,99.90
2022-10-02T02:41:53.184Z,99.90
2022-10-02T02:44:28.297Z,99.90
2022-10-02T02:47:07.129Z,99.90
2022-10-02T02:49:45.632Z,99.90
2022-10-02T02:52:18.481Z,99.90
2022-10-02T02:54:50.707Z,99.90
2022-10-02T02:57:29.804Z,99.90
2022-10-02T03:00:04.650Z,99.90
2022-10-02T03:02:33.293Z,99.90
2022-10-02T03:05:02.057Z,99.90
2022-10-02T03:07:30.906Z,99.90
2022-10-02T03:10:11.128Z,99.90
2022-10-02T03:12:53.099Z,99.90
2022-10-02T03:15:30.059Z,99.90
2022-10-02T03:18:43.228Z,99.90
2022-10-02T03:21:16.263Z,99.90
2022-10-02T03:24:00.109Z,99.90
2022-10-02T03:26:38.350Z,99.90
2022-10-02T03:29:15.908Z,99.90
2022-10-02T03:31:47.619Z,99.90
2022-10-02T03:34:17.749Z,99.90
2022-10-02T03:36:48.245Z,99.90
2022-10-02T03:39:25.874Z,99.90
2022-10-02T03:41:55.980Z,99.90
2022-10-02T03:44:25.102Z,99.90
2022-10-02T03:46:55.402Z,99.90
2022-10-02T03:49:24.181Z,99.90
2022-10-02T03:51:53.633Z,99.90
2022-10-02T03:54:23.556Z,99.90
2022-10-02T03:56:56.769Z,99.90
2022-10-02T03:59:38.609Z,99.90
2022-10-02T04:02:17.369Z,99.90
2022-10-02T04:04:49.393Z,99.90
2022-10-02T04:07:29.409Z,99.90
2022-10-02T04:10:09.122Z,99.90
2022-10-02T04:12:42.958Z,99.90
2022-10-02T04:15:21.849Z,99.90
2022-10-02T04:17:59.051Z,99.90
2022-10-02T04:20:33.610Z,99.90
2022-10-02T04:23:08.301Z,99.90
2022-10-02T04:25:41.567Z,99.90
2022-10-02T04:28:16.238Z,99.90
2022-10-02T04:30:45.020Z,99.90
2022-10-02T04:33:16.991Z,99.90
2022-10-02T04:35:54.839Z,99.90
2022-10-02T04:38:43.987Z,99.90
2022-10-02T04:41:26.987Z,99.90
2022-10-02T04:44:05.885Z,99.90
2022-10-02T04:47:00.906Z,99.90
2022-10-02T04:49:51.959Z,99.90
2022-10-02T04:52:40.781Z,99.90
2022-10-02T04:55:35.126Z,99.90
2022-10-02T04:58:25.075Z,99.90
2022-10-02T05:01:03.166Z,99.90
2022-10-02T05:03:46.987Z,99.90
2022-10-02T05:06:34.227Z,99.90
2022-10-02T05:09:10.999Z,99.90
2022-10-02T05:12:01.670Z,99.90
2022-10-02T05:14:53.900Z,99.90
2022-10-02T05:17:34.144Z,99.90
2022-10-02T05:20:21.137Z,99.90
2022-10-02T05:23:20.720Z,99.90
2022-10-02T05:26:07.078Z,99.90
2022-10-02T05:29:03.654Z,99.90
2022-10-02T05:31:47.668Z,99.90
2022-10-02T05:34:31.428Z,99.90
2022-10-02T05:37:17.841Z,99.90
2022-10-02T05:39:55.954Z,99.90
2022-10-02T05:42:32.028Z,99.90
2022-10-02T05:45:05.897Z,99.90
2022-10-02T05:47:39.929Z,99.90
2022-10-02T05:50:18.199Z,99.90
2022-10-02T05:52:55.383Z,99.90
2022-10-02T05:55:35.684Z,99.90
2022-10-02T05:58:09.882Z,99.90
2022-10-02T06:00:44.719Z,99.90
2022-10-02T06:03:21.270Z,99.90
2022-10-02T06:05:55.606Z,99.90
2022-10-02T06:08:32.033Z,99.90
2022-10-02T06:11:09.381Z,99.90
2022-10-02T06:13:45.647Z,99.90
2022-10-02T06:16:20.829Z,99.90
2022-10-02T06:18:55.646Z,99.90
2022-10-02T06:21:33.954Z,99.90
2022-10-02T06:24:10.305Z,99.90
2022-10-02T06:26:48.361Z,99.90
2022-10-02T06:29:27.179Z,99.90
2022-10-02T06:32:07.549Z,99.90
2022-10-02T06:34:36.316Z,99.90
2022-10-02T06:37:37.893Z,99.90
2022-10-02T06:40:43.977Z,99.90
2022-10-02T06:43:30.998Z,99.90
2022-10-02T06:46:10.874Z,99.90
2022-10-02T06:48:48.749Z,99.90
2022-10-02T06:51:26.944Z,99.90
2022-10-02T06:54:12.115Z,99.90
2022-10-02T06:56:53.874Z,99.90
2022-10-02T06:59:37.401Z,99.90
2022-10-02T07:02:19.789Z,99.90
2022-10-02T07:04:58.885Z,99.90
2022-10-02T07:07:43.517Z,99.90
2022-10-02T07:10:26.229Z,99.90
2022-10-02T07:13:19.196Z,99.90
2022-10-02T07:16:23.981Z,99.90
2022-10-02T07:19:31.915Z,99.90
2022-10-02T07:22:39.493Z,99.90
2022-10-02T07:25:16.534Z,99.90
2022-10-02T07:27:53.692Z,99.90
2022-10-02T07:30:22.611Z,99.90
2022-10-02T07:32:59.479Z,99.90
2022-10-02T07:35:44.281Z,99.90
2022-10-02T07:38:45.315Z,99.90
2022-10-02T07:41:25.766Z,99.90
2022-10-02T07:44:03.593Z,99.90
2022-10-02T07:46:42.076Z,99.90
2022-10-02T07:49:36.806Z,99.90
2022-10-02T07:52:19.195Z,99.90
2022-10-02T07:55:00.581Z,99.90
2022-10-02T07:57:46.767Z,99.90
2022-10-02T08:00:17.000Z,99.90
2022-10-02T08:02:51.682Z,99.90
2022-10-02T08:05:23.561Z,99.90
2022-10-02T08:07:59.578Z,99.90
2022-10-02T08:10:33.266Z,99.90
2022-10-02T08:13:08.375Z,99.90
2022-10-02T08:15:40.044Z,99.90
2022-10-02T08:18:33.620Z,99.90
2022-10-02T08:21:05.493Z,99.90
2022-10-02T08:23:41.548Z,99.90
2022-10-02T08:26:18.250Z,99.90
2022-10-02T08:28:53.368Z,99.90
2022-10-02T08:31:24.176Z,99.90
2022-10-02T08:33:53.149Z,99.90
2022-10-02T08:37:01.846Z,99.90
2022-10-02T08:39:52.326Z,99.90
2022-10-02T08:43:06.699Z,99.90
2022-10-02T08:46:03.527Z,99.90
2022-10-02T08:49:03.182Z,99.90
2022-10-02T08:52:04.664Z,99.90
2022-10-02T08:55:15.525Z,99.90
2022-10-02T08:58:16.572Z,99.90
2022-10-02T09:01:35.308Z,99.90
2022-10-02T09:04:42.209Z,99.90
2022-10-02T09:07:56.565Z,99.90
2022-10-02T09:11:26.080Z,99.90
2022-10-02T09:14:58.949Z,99.90
2022-10-02T09:17:44.902Z,99.90
2022-10-02T09:21:11.561Z,99.90
2022-10-02T09:24:13.733Z,99.90
2022-10-02T09:27:18.357Z,99.90
2022-10-02T09:30:27.318Z,99.90
2022-10-02T09:33:46.503Z,99.90
2022-10-02T09:36:40.848Z,99.90
2022-10-02T09:39:47.754Z,99.90
2022-10-02T09:43:13.119Z,99.90
2022-10-02T09:46:26.993Z,99.90
2022-10-02T09:49:34.487Z,99.90
2022-10-02T09:52:40.619Z,99.90
2022-10-02T09:55:45.078Z,99.90
2022-10-02T09:58:49.515Z,99.90
2022-10-02T10:01:53.083Z,81.00
2022-10-02T10:05:09.018Z,73.90
2022-10-02T10:08:03.692Z,19.70
2022-10-02T10:11:11.912Z,1.00
2022-10-02T10:14:21.627Z,1.00
2022-10-02T10:17:26.199Z,1.00
2022-10-02T10:20:31.303Z,1.00
2022-10-02T10:23:16.879Z,1.00
2022-10-02T10:25:59.158Z,1.00
2022-10-02T10:29:05.047Z,1.00
2022-10-02T10:32:21.737Z,1.00
2022-10-02T10:35:21.546Z,1.00
2022-10-02T10:38:18.176Z,1.00
2022-10-02T10:41:18.142Z,1.00
2022-10-02T10:44:29.996Z,1.00
2022-10-02T10:47:18.508Z,1.00
2022-10-02T10:50:24.938Z,1.00
2022-10-02T10:53:21.522Z,1.00
2022-10-02T10:56:26.407Z,1.00
2022-10-02T10:59:25.481Z,1.00
2022-10-02T11:02:14.681Z,1.00
2022-10-02T11:05:02.780Z,1.00
2022-10-02T11:07:46.039Z,1.00
2022-10-02T11:10:31.219Z,1.00
2022-10-02T11:13:16.449Z,1.00
2022-10-02T11:16:19.433Z,1.00
2022-10-02T11:19:14.974Z,1.00
2022-10-02T11:22:26.164Z,1.00
2022-10-02T11:25:18.126Z,1.00
2022-10-02T11:28:18.928Z,1.00
2022-10-02T11:30:56.654Z,1.00
2022-10-02T11:34:03.946Z,1.00
2022-10-02T11:36:49.033Z,1.00
2022-10-02T11:39:43.994Z,1.00
2022-10-02T11:42:27.231Z,1.00
2022-10-02T11:45:22.323Z,1.00
2022-10-02T11:48:20.781Z,1.00
2022-10-02T11:51:02.159Z,1.00
2022-10-02T11:53:41.507Z,1.00
2022-10-02T11:56:29.529Z,1.00
2022-10-02T11:59:11.594Z,1.00
2022-10-02T12:01:47.920Z,1.00
2022-10-02T12:04:36.581Z,1.00
2022-10-02T12:07:20.009Z,1.00
2022-10-02T12:10:04.953Z,1.00
2022-10-02T12:12:51.779Z,1.00
2022-10-02T12:15:32.165Z,1.00
2022-10-02T12:18:21.871Z,1.00
2022-10-02T12:21:23.044Z,1.00
2022-10-02T12:24:14.800Z,1.00
2022-10-02T12:27:04.431Z,1.00
2022-10-02T12:29:55.119Z,1.00
2022-10-02T12:32:42.287Z,1.00
2022-10-02T12:35:29.135Z,1.00
2022-10-02T12:38:09.593Z,1.00
2022-10-02T12:40:50.815Z,1.00
2022-10-02T12:44:04.042Z,1.00
2022-10-02T12:47:04.362Z,1.00
2022-10-02T12:49:45.978Z,1.00
2022-10-02T12:52:45.324Z,1.00
2022-10-02T12:55:52.853Z,1.00
2022-10-02T12:58:29.865Z,1.00
2022-10-02T13:01:31.897Z,1.00
2022-10-02T13:04:39.387Z,1.00
2022-10-02T13:07:58.259Z,1.00
2022-10-02T13:10:31.098Z,1.00
2022-10-02T13:13:16.454Z,1.00
2022-10-02T13:16:02.661Z,1.00
2022-10-02T13:18:59.087Z,1.00
2022-10-02T13:21:39.307Z,1.00
2022-10-02T13:24:22.414Z,1.00
2022-10-02T13:26:57.911Z,1.00
2022-10-02T13:30:00.566Z,1.00
2022-10-02T13:32:46.421Z,1.00
2022-10-02T13:35:47.968Z,1.00
2022-10-02T13:38:48.671Z,1.00
2022-10-02T13:41:30.486Z,1.00
2022-10-02T13:44:16.207Z,1.00
2022-10-02T13:47:13.294Z,1.00
2022-10-02T13:50:08.096Z,1.00
2022-10-02T13:52:51.759Z,1.00
2022-10-02T13:55:25.893Z,1.00
2022-10-02T13:58:23.172Z,1.00
2022-10-02T14:01:14.240Z,1.00
2022-10-02T14:04:11.443Z,1.00
2022-10-02T14:06:44.112Z,1.00
2022-10-02T14:09:34.913Z,1.00
2022-10-02T14:12:26.210Z,1.00
2022-10-02T14:15:19.502Z,1.00
2022-10-02T14:18:15.235Z,1.00
2022-10-02T14:20:52.977Z,1.00
2022-10-02T14:23:45.791Z,1.00
2022-10-02T14:26:28.221Z,1.00
2022-10-02T14:29:21.965Z,1.00
2022-10-02T14:32:21.328Z,1.00
2022-10-02T14:35:19.310Z,1.00
2022-10-02T14:38:27.370Z,1.00
2022-10-02T14:40:57.793Z,1.00
2022-10-02T14:44:15.253Z,1.00
2022-10-02T14:47:03.051Z,1.00
2022-10-02T14:49:56.837Z,1.00
2022-10-02T14:52:46.312Z,1.00
2022-10-02T14:55:31.960Z,1.00
2022-10-02T14:58:12.278Z,1.00
2022-10-02T15:00:58.246Z,1.00
2022-10-02T15:03:42.826Z,1.00
2022-10-02T15:06:24.956Z,1.00
2022-10-02T15:09:00.033Z,1.00
2022-10-02T15:11:57.415Z,1.00
2022-10-02T15:14:36.574Z,1.00
2022-10-02T15:17:30.446Z,1.00
2022-10-02T15:20:06.680Z,1.00
2022-10-02T15:22:41.909Z,1.00
2022-10-02T15:25:18.975Z,1.00
2022-10-02T15:28:24.203Z,1.00
2022-10-02T15:31:09.586Z,1.00
2022-10-02T15:33:46.510Z,1.00
2022-10-02T15:36:36.195Z,1.00
2022-10-02T15:39:16.544Z,1.00
2022-10-02T15:41:49.771Z,1.00
2022-10-02T15:44:55.240Z,1.00
2022-10-02T15:47:54.153Z,1.00
2022-10-02T15:50:32.795Z,1.00
2022-10-02T15:53:22.219Z,1.00
2022-10-02T15:55:57.734Z,1.00
2022-10-02T15:58:41.159Z,1.00
2022-10-02T16:01:26.523Z,1.00
2022-10-02T16:04:02.423Z,1.00
2022-10-02T16:06:53.583Z,1.00
2022-10-02T16:09:48.239Z,1.00
2022-10-02T16:12:35.819Z,1.00
2022-10-02T16:15:18.244Z,1.00
2022-10-02T16:18:19.098Z,1.00
2022-10-02T16:21:08.517Z,1.00
2022-10-02T16:24:14.977Z,1.00
2022-10-02T16:27:14.575Z,1.00
2022-10-02T16:29:53.652Z,1.00
2022-10-02T16:32:32.574Z,1.00
2022-10-02T16:35:25.494Z,1.00
2022-10-02T16:38:01.543Z,1.00
2022-10-02T16:40:41.577Z,1.00
2022-10-02T16:43:49.087Z,1.00
2022-10-02T16:46:27.816Z,1.00
2022-10-02T16:49:03.138Z,1.00
2022-10-02T16:51:45.834Z,1.00
2022-10-02T16:54:20.503Z,1.00
2022-10-02T16:57:03.709Z,1.00
2022-10-02T16:59:43.797Z,1.00
2022-10-02T17:02:21.314Z,1.00
2022-10-02T17:05:05.978Z,1.00
2022-10-02T17:07:44.632Z,1.00
2022-10-02T17:10:24.398Z,1.00
2022-10-02T17:13:01.970Z,1.00
2022-10-02T17:15:40.627Z,1.00
2022-10-02T17:18:25.992Z,1.00
2022-10-02T17:21:03.895Z,1.00
2022-10-02T17:23:54.288Z,1.00
2022-10-02T17:26:33.534Z,1.00
2022-10-02T17:29:21.763Z,1.00
2022-10-02T17:31:57.923Z,1.00
2022-10-02T17:34:28.541Z,1.00
2022-10-02T17:37:08.014Z,1.00
2022-10-02T17:39:49.904Z,1.00
2022-10-02T17:42:30.652Z,1.00
2022-10-02T17:45:10.070Z,1.00
2022-10-02T17:47:54.498Z,1.00
2022-10-02T17:50:53.744Z,1.00
2022-10-02T17:54:08.190Z,1.00
2022-10-02T17:56:56.291Z,1.00
2022-10-02T17:59:56.579Z,1.00
2022-10-02T18:02:57.862Z,1.00
2022-10-02T18:05:38.669Z,1.00
2022-10-02T18:08:34.943Z,1.00
2022-10-02T18:11:09.223Z,1.00
2022-10-02T18:13:58.708Z,1.00
2022-10-02T18:16:39.124Z,1.00
2022-10-02T18:19:37.842Z,1.00
2022-10-02T18:22:27.170Z,1.00
2022-10-02T18:25:23.096Z,1.00
2022-10-02T18:28:08.316Z,1.00
2022-10-02T18:30:47.764Z,1.00
2022-10-02T18:33:54.361Z,1.00
2022-10-02T18:36:39.877Z,1.00
2022-10-02T18:39:23.654Z,1.00
2022-10-02T18:41:58.691Z,1.00
2022-10-02T18:44:48.216Z,1.00
2022-10-02T18:47:28.148Z,1.00
2022-10-02T18:50:23.062Z,1.00
2022-10-02T18:53:10.748Z,1.00
2022-10-02T18:56:03.368Z,1.00
2022-10-02T18:58:50.861Z,1.00
2022-10-02T19:01:48.212Z,1.00
2022-10-02T19:04:39.892Z,1.00
2022-10-02T19:07:15.144Z,1.00
2022-10-02T19:09:47.016Z,1.00
2022-10-02T19:12:18.651Z,1.00
2022-10-02T19:14:47.947Z,1.00
2022-10-02T19:17:27.094Z,1.00
2022-10-02T19:19:56.911Z,1.00
2022-10-02T19:22:31.597Z,1.00
2022-10-02T19:25:22.197Z,1.00
2022-10-02T19:27:58.340Z,1.00
2022-10-02T19:30:36.926Z,1.00
2022-10-02T19:33:13.638Z,1.00
2022-10-02T19:35:50.890Z,1.00
2022-10-02T19:38:34.693Z,1.00
2022-10-02T19:41:25.420Z,1.00
2022-10-02T19:44:15.418Z,1.00
2022-10-02T19:46:53.594Z,1.00
2022-10-02T19:49:30.266Z,1.00
2022-10-02T19:52:00.908Z,1.00
2022-10-02T19:54:36.443Z,1.00
2022-10-02T19:57:15.315Z,1.00
2022-10-02T19:59:48.930Z,1.00
2022-10-02T20:02:37.434Z,1.00
2022-10-02T20:05:16.904Z,3.70
2022-10-02T20:07:47.254Z,1.00
2022-10-02T20:10:21.438Z,1.00
2022-10-02T20:12:57.794Z,4.50
2022-10-02T20:15:49.478Z,5.60
2022-10-02T20:18:25.048Z,26.40
2022-10-02T20:20:57.310Z,28.00
2022-10-02T20:23:29.855Z,22.00
2022-10-02T20:26:09.235Z,10.90
2022-10-02T20:28:46.642Z,6.70
2022-10-02T20:31:20.187Z,9.50
2022-10-02T20:33:54.026Z,6.60
2022-10-02T20:36:27.656Z,1.20
2022-10-02T20:39:02.752Z,1.00
2022-10-02T20:41:40.040Z,2.60
2022-10-02T20:44:13.155Z,11.80
2022-10-02T20:47:32.176Z,26.10
2022-10-02T20:50:41.512Z,4.80
2022-10-02T20:53:46.889Z,12.50
2022-10-02T20:56:32.442Z,32.70
2022-10-02T20:59:29.238Z,18.20
2022-10-02T21:02:15.063Z,36.50
2022-10-02T21:05:11.673Z,26.20
2022-10-02T21:08:08.939Z,28.00
2022-10-02T21:11:19.430Z,50.40
2022-10-02T21:14:31.315Z,74.00
2022-10-02T21:17:30.991Z,93.80
2022-10-02T21:20:49.692Z,99.90
2022-10-02T21:23:42.783Z,99.90
2022-10-02T21:27:01.093Z,99.90
2022-10-02T21:29:56.124Z,99.90
2022-10-02T21:32:41.721Z,99.90
2022-10-02T21:35:32.270Z,99.90
2022-10-02T21:38:20.958Z,99.90
2022-10-02T21:41:25.227Z,99.90
2022-10-02T21:44:37.852Z,99.90
2022-10-02T21:47:41.561Z,99.90
2022-10-02T21:50:46.331Z,99.90
2022-10-02T21:53:54.984Z,99.90
2022-10-02T21:56:56.582Z,99.90
2022-10-02T21:59:53.080Z,99.90
2022-10-02T22:02:39.237Z,99.90
2022-10-02T22:05:34.979Z,99.90
2022-10-02T22:08:21.421Z,99.90
2022-10-02T22:10:56.248Z,99.90
2022-10-02T22:13:30.618Z,99.90
2022-10-02T22:16:13.643Z,99.90
2022-10-02T22:18:54.139Z,99.90
2022-10-02T22:25:01.813Z,99.90
2022-10-02T22:27:53.193Z,99.90
2022-10-02T22:30:25.886Z,99.90
2022-10-02T22:33:27.628Z,99.90
2022-10-02T22:36:17.847Z,99.90
2022-10-02T22:38:50.672Z,99.90
2022-10-02T22:41:29.316Z,99.90
2022-10-02T22:44:00.861Z,99.90
2022-10-02T22:46:41.543Z,99.90
2022-10-02T22:49:21.078Z,99.90
2022-10-02T22:52:00.328Z,99.90
2022-10-02T22:54:37.053Z,99.90
2022-10-02T22:57:22.981Z,99.90
2022-10-02T23:00:00.485Z,99.90
2022-10-02T23:02:34.248Z,99.90
2022-10-02T23:05:11.361Z,99.90
2022-10-02T23:07:46.844Z,99.90
2022-10-02T23:10:27.426Z,1.00
2022-10-02T23:13:07.583Z,99.90
2022-10-02T23:15:47.532Z,1.00
2022-10-02T23:18:25.928Z,1.00
2022-10-02T23:21:02.872Z,1.00
2022-10-02T23:23:37.665Z,1.00
2022-10-02T23:26:12.979Z,1.00
2022-10-02T23:28:52.124Z,1.00
2022-10-02T23:31:24.522Z,1.00
2022-10-02T23:33:59.810Z,1.00
2022-10-02T23:36:36.239Z,1.00
2022-10-02T23:39:14.300Z,1.00
2022-10-02T23:41:48.016Z,1.00
2022-10-02T23:44:28.773Z,1.00
2022-10-02T23:47:26.028Z,1.00
2022-10-02T23:49:56.437Z,1.00
2022-10-02T23:53:01.395Z,1.00
2022-10-02T23:55:46.055Z,1.00
2022-10-02T23:58:40.455Z,1.00
